createdAt,value
2023-04-18T00:00:00.717Z,5.63
2023-04-18T00:01:00.687Z,5.63
2023-04-18T00:02:00.783Z,5.63
2023-04-18T00:03:03.337Z,5.63
2023-04-18T00:04:00.756Z,5.63
2023-04-18T00:05:00.719Z,5.63
2023-04-18T00:06:00.626Z,5.62
2023-04-18T00:07:00.644Z,5.62
2023-04-18T00:08:00.615Z,5.62
2023-04-18T00:09:00.643Z,5.62
2023-04-18T00:10:00.591Z,5.61
2023-04-18T00:11:00.573Z,5.61
2023-04-18T00:12:00.549Z,5.61
2023-04-18T00:13:00.557Z,5.61
2023-04-18T00:14:00.535Z,5.60
2023-04-18T00:15:00.532Z,5.60
2023-04-18T00:16:00.511Z,5.60
2023-04-18T00:17:00.543Z,5.60
2023-04-18T00:18:00.520Z,5.60
2023-04-18T00:19:00.470Z,5.59
2023-04-18T00:20:00.464Z,5.59
2023-04-18T00:21:00.448Z,5.59
2023-04-18T00:22:00.421Z,5.59
2023-04-18T00:23:00.414Z,5.59
2023-04-18T00:24:00.411Z,5.58
2023-04-18T00:25:00.405Z,5.57
2023-04-18T00:26:00.372Z,5.56
2023-04-18T00:27:00.392Z,5.55
2023-04-18T00:28:00.344Z,5.53
2023-04-18T00:29:00.332Z,5.52
2023-04-18T00:30:00.359Z,5.52
2023-04-18T00:31:00.386Z,5.52
2023-04-18T00:32:00.300Z,5.54
2023-04-18T00:33:00.421Z,5.55
2023-04-18T00:34:00.271Z,5.57
2023-04-18T00:35:00.281Z,5.59
2023-04-18T00:36:00.258Z,5.61
2023-04-18T00:37:00.244Z,5.62
2023-04-18T00:38:00.213Z,5.63
2023-04-18T00:39:00.241Z,5.63
2023-04-18T00:40:00.245Z,5.64
2023-04-18T00:41:00.201Z,5.65
2023-04-18T00:42:00.166Z,5.65
2023-04-18T00:43:00.149Z,5.66
2023-04-18T00:44:00.181Z,5.67
2023-04-18T00:45:00.200Z,5.68
2023-04-18T00:46:00.166Z,5.68
2023-04-18T00:47:00.153Z,5.69
2023-04-18T00:48:00.185Z,5.69
2023-04-18T00:49:00.129Z,5.68
2023-04-18T00:50:00.091Z,5.68
2023-04-18T00:51:00.086Z,5.68
2023-04-18T00:52:00.071Z,5.67
2023-04-18T00:53:00.034Z,5.67
2023-04-18T00:54:00.009Z,5.66
2023-04-18T00:55:00.026Z,5.66
2023-04-18T00:56:00.041Z,5.65
2023-04-18T00:56:59.992Z,5.65
2023-04-18T00:57:59.960Z,5.65
2023-04-18T00:58:59.958Z,5.65
2023-04-18T00:59:59.953Z,5.65
2023-04-18T01:00:59.939Z,5.64
2023-04-18T01:01:59.993Z,5.64
2023-04-18T01:03:57.931Z,6.80
2023-04-18T01:04:58.796Z,6.34
2023-04-18T01:05:58.780Z,6.04
2023-04-18T01:06:58.762Z,5.86
2023-04-18T01:07:58.784Z,5.77
2023-04-18T01:08:58.761Z,5.72
2023-04-18T01:09:58.728Z,5.70
2023-04-18T01:10:58.770Z,5.68
2023-04-18T01:11:58.703Z,5.67
2023-04-18T01:12:58.695Z,5.66
2023-04-18T01:13:58.680Z,5.66
2023-04-18T01:14:58.696Z,5.65
2023-04-18T01:15:58.727Z,5.65
2023-04-18T01:16:58.689Z,5.65
2023-04-18T01:17:58.669Z,5.65
2023-04-18T01:18:58.617Z,5.66
2023-04-18T01:19:58.596Z,5.66
2023-04-18T01:20:58.651Z,5.67
2023-04-18T01:21:58.580Z,5.68
2023-04-18T01:22:58.588Z,5.69
2023-04-18T01:23:58.554Z,5.70
2023-04-18T01:24:58.544Z,5.70
2023-04-18T01:25:58.532Z,5.71
2023-04-18T01:26:58.544Z,5.71
2023-04-18T01:27:58.515Z,5.71
2023-04-18T01:28:58.503Z,5.71
2023-04-18T01:29:58.472Z,5.70
2023-04-18T01:30:58.480Z,5.69
2023-04-18T01:31:58.496Z,5.69
2023-04-18T01:32:58.492Z,5.69
2023-04-18T01:33:58.426Z,5.69
2023-04-18T01:34:58.473Z,5.69
2023-04-18T01:35:58.410Z,5.69
2023-04-18T01:36:58.381Z,5.70
2023-04-18T01:37:58.392Z,5.70
2023-04-18T01:38:58.367Z,5.70
2023-04-18T01:39:58.352Z,5.70
2023-04-18T01:40:58.374Z,5.69
2023-04-18T01:41:58.326Z,5.69
2023-04-18T01:42:58.307Z,5.68
2023-04-18T01:43:58.294Z,5.68
2023-04-18T01:44:58.328Z,5.68
2023-04-18T01:45:58.285Z,5.68
2023-04-18T01:46:58.387Z,5.68
2023-04-18T01:47:58.306Z,5.68
2023-04-18T01:48:58.239Z,5.67
2023-04-18T01:49:58.224Z,5.67
2023-04-18T01:50:58.248Z,5.67
2023-04-18T01:51:58.217Z,5.67
2023-04-18T01:52:58.188Z,5.67
2023-04-18T01:53:58.180Z,5.66
2023-04-18T01:54:58.184Z,5.66
2023-04-18T01:55:58.147Z,5.66
2023-04-18T01:56:58.168Z,5.66
2023-04-18T01:57:58.133Z,5.66
2023-04-18T01:58:58.121Z,5.65
2023-04-18T01:59:58.087Z,5.65
2023-04-18T02:00:58.081Z,5.64
2023-04-18T02:01:58.159Z,5.63
2023-04-18T02:02:58.237Z,5.63
2023-04-18T02:03:58.142Z,5.63
2023-04-18T02:04:58.031Z,5.63
2023-04-18T02:05:58.017Z,5.63
2023-04-18T02:06:57.990Z,5.63
2023-04-18T02:07:58.014Z,5.63
2023-04-18T02:08:57.991Z,5.63
2023-04-18T02:09:57.985Z,5.63
2023-04-18T02:10:57.988Z,5.62
2023-04-18T02:11:57.926Z,5.62
2023-04-18T02:12:57.951Z,5.62
2023-04-18T02:13:57.970Z,5.61
2023-04-18T02:14:57.905Z,5.62
2023-04-18T02:15:57.942Z,5.62
2023-04-18T02:16:58.114Z,5.62
2023-04-18T02:17:57.878Z,5.62
2023-04-18T02:18:57.946Z,5.62
2023-04-18T02:19:57.869Z,5.62
2023-04-18T02:20:57.873Z,5.62
2023-04-18T02:21:57.839Z,5.62
2023-04-18T02:22:57.842Z,5.62
2023-04-18T02:23:57.800Z,5.62
2023-04-18T02:24:57.801Z,5.62
2023-04-18T02:25:57.772Z,5.61
2023-04-18T02:26:57.783Z,5.61
2023-04-18T02:27:57.760Z,5.61
2023-04-18T02:28:57.728Z,5.61
2023-04-18T02:29:57.717Z,5.61
2023-04-18T02:30:57.715Z,5.61
2023-04-18T02:31:57.735Z,5.61
2023-04-18T02:32:57.698Z,5.61
2023-04-18T02:33:57.674Z,5.61
2023-04-18T02:34:57.668Z,5.61
2023-04-18T02:35:57.716Z,5.62
2023-04-18T02:36:57.663Z,5.61
2023-04-18T02:37:57.620Z,5.61
2023-04-18T02:38:57.659Z,5.62
2023-04-18T02:39:57.594Z,5.62
2023-04-18T02:40:57.578Z,5.62
2023-04-18T02:41:57.562Z,5.63
2023-04-18T02:42:57.556Z,5.63
2023-04-18T02:43:57.524Z,5.63
2023-04-18T02:44:57.571Z,5.63
2023-04-18T02:45:57.539Z,5.63
2023-04-18T02:46:57.552Z,5.64
2023-04-18T02:47:57.539Z,5.65
2023-04-18T02:48:57.474Z,5.65
2023-04-18T02:49:57.491Z,5.65
2023-04-18T02:50:57.541Z,5.65
2023-04-18T02:51:57.434Z,5.65
2023-04-18T02:52:57.403Z,5.65
2023-04-18T02:53:57.403Z,5.65
2023-04-18T02:54:57.399Z,5.65
2023-04-18T02:55:57.399Z,5.65
2023-04-18T02:56:57.393Z,5.65
2023-04-18T02:57:57.399Z,5.64
2023-04-18T02:58:57.340Z,5.64
2023-04-18T02:59:57.365Z,5.63
2023-04-18T03:00:57.348Z,5.62
2023-04-18T03:01:57.420Z,5.60
2023-04-18T03:02:57.342Z,5.58
2023-04-18T03:03:57.263Z,5.55
2023-04-18T03:04:57.279Z,5.52
2023-04-18T03:05:57.261Z,5.49
2023-04-18T03:06:57.237Z,5.46
2023-04-18T03:07:57.228Z,5.44
2023-04-18T03:08:57.247Z,5.42
2023-04-18T03:09:57.244Z,5.40
2023-04-18T03:10:57.224Z,5.37
2023-04-18T03:11:57.186Z,5.35
2023-04-18T03:12:57.148Z,5.32
2023-04-18T03:13:57.162Z,5.29
2023-04-18T03:14:57.182Z,5.26
2023-04-18T03:15:57.207Z,5.24
2023-04-18T03:16:57.128Z,5.23
2023-04-18T03:17:57.186Z,5.22
2023-04-18T03:18:57.102Z,5.23
2023-04-18T03:19:57.073Z,5.24
2023-04-18T03:20:57.084Z,5.26
2023-04-18T03:21:57.055Z,5.28
2023-04-18T03:22:57.064Z,5.31
2023-04-18T03:23:57.015Z,5.33
2023-04-18T03:24:57.008Z,5.35
2023-04-18T03:25:57.004Z,5.36
2023-04-18T03:26:56.988Z,5.36
2023-04-18T03:27:56.967Z,5.36
2023-04-18T03:28:56.974Z,5.35
2023-04-18T03:29:56.961Z,5.35
2023-04-18T03:30:56.976Z,5.36
2023-04-18T03:31:56.953Z,5.37
2023-04-18T03:32:57.012Z,5.39
2023-04-18T03:33:56.913Z,5.40
2023-04-18T03:34:56.889Z,5.41
2023-04-18T03:35:56.880Z,5.41
2023-04-18T03:36:56.863Z,5.41
2023-04-18T03:37:56.900Z,5.42
2023-04-18T03:38:56.854Z,5.42
2023-04-18T03:39:56.815Z,5.43
2023-04-18T03:40:56.823Z,5.44
2023-04-18T03:41:56.827Z,5.44
2023-04-18T03:42:56.854Z,5.45
2023-04-18T03:43:56.753Z,5.45
2023-04-18T03:44:56.843Z,5.45
2023-04-18T03:45:56.814Z,5.45
2023-04-18T03:46:56.752Z,5.45
2023-04-18T03:47:56.793Z,5.46
2023-04-18T03:48:56.748Z,5.46
2023-04-18T03:49:56.726Z,5.46
2023-04-18T03:50:56.721Z,5.46
2023-04-18T03:51:56.684Z,5.46
2023-04-18T03:52:56.653Z,5.46
2023-04-18T03:53:56.645Z,5.46
2023-04-18T03:54:56.640Z,5.46
2023-04-18T03:55:56.632Z,5.46
2023-04-18T03:56:56.620Z,5.46
2023-04-18T03:57:56.591Z,5.46
2023-04-18T03:58:56.577Z,5.46
2023-04-18T03:59:56.598Z,5.46
2023-04-18T04:00:56.586Z,5.46
2023-04-18T04:01:56.640Z,5.46
2023-04-18T04:02:56.897Z,5.46
2023-04-18T04:03:56.605Z,5.47
2023-04-18T04:04:56.553Z,5.47
2023-04-18T04:05:56.508Z,5.47
2023-04-18T04:06:56.480Z,5.47
2023-04-18T04:07:56.557Z,5.48
2023-04-18T04:08:56.465Z,5.48
2023-04-18T04:09:56.436Z,5.48
2023-04-18T04:10:56.435Z,5.48
2023-04-18T04:11:56.452Z,5.48
2023-04-18T04:12:56.438Z,5.48
2023-04-18T04:13:56.406Z,5.47
2023-04-18T04:14:56.370Z,5.47
2023-04-18T04:15:56.497Z,5.47
2023-04-18T04:16:56.433Z,5.47
2023-04-18T04:17:56.368Z,5.47
2023-04-18T04:18:56.342Z,5.47
2023-04-18T04:19:56.323Z,5.47
2023-04-18T04:20:56.308Z,5.47
2023-04-18T04:21:56.303Z,5.46
2023-04-18T04:22:56.325Z,5.46
2023-04-18T04:23:56.268Z,5.46
2023-04-18T04:24:56.340Z,5.46
2023-04-18T04:25:56.299Z,5.46
2023-04-18T04:26:56.236Z,5.46
2023-04-18T04:27:56.275Z,5.46
2023-04-18T04:28:56.205Z,5.45
2023-04-18T04:29:56.174Z,5.45
2023-04-18T04:30:56.217Z,5.43
2023-04-18T04:31:56.198Z,5.43
2023-04-18T04:32:56.202Z,5.43
2023-04-18T04:33:56.144Z,5.44
2023-04-18T04:34:56.128Z,5.45
2023-04-18T04:35:56.128Z,5.45
2023-04-18T04:36:56.093Z,5.45
2023-04-18T04:37:56.084Z,5.44
2023-04-18T04:38:56.106Z,5.43
2023-04-18T04:39:56.109Z,5.42
2023-04-18T04:40:56.036Z,5.40
2023-04-18T04:41:56.124Z,5.39
2023-04-18T04:42:56.007Z,5.38
2023-04-18T04:43:56.014Z,5.36
2023-04-18T04:44:56.045Z,5.35
2023-04-18T04:45:56.110Z,5.34
2023-04-18T04:46:56.004Z,5.34
2023-04-18T04:47:55.979Z,5.35
2023-04-18T04:48:55.956Z,5.36
2023-04-18T04:49:56.003Z,5.36
2023-04-18T04:50:55.945Z,5.37
2023-04-18T04:51:55.944Z,5.38
2023-04-18T04:52:55.902Z,5.40
2023-04-18T04:53:55.922Z,5.41
2023-04-18T04:54:55.915Z,5.42
2023-04-18T04:55:55.887Z,5.44
2023-04-18T04:56:55.860Z,5.45
2023-04-18T04:57:55.829Z,5.47
2023-04-18T04:58:55.832Z,5.48
2023-04-18T04:59:55.810Z,5.50
2023-04-18T05:00:55.876Z,5.50
2023-04-18T05:01:55.810Z,5.50
2023-04-18T05:02:55.910Z,5.49
2023-04-18T05:03:55.966Z,5.49
2023-04-18T05:04:55.747Z,5.49
2023-04-18T05:05:55.725Z,5.49
2023-04-18T05:06:55.721Z,5.49
2023-04-18T05:07:55.725Z,5.48
2023-04-18T05:08:55.706Z,5.48
2023-04-18T05:09:55.680Z,5.49
2023-04-18T05:10:55.661Z,5.49
2023-04-18T05:11:55.706Z,5.50
2023-04-18T05:12:55.683Z,5.52
2023-04-18T05:13:55.652Z,5.54
2023-04-18T05:14:55.630Z,5.55
2023-04-18T05:15:55.660Z,5.56
2023-04-18T05:16:55.689Z,5.56
2023-04-18T05:17:55.575Z,5.57
2023-04-18T05:18:55.578Z,5.60
2023-04-18T05:19:55.634Z,5.61
2023-04-18T05:20:55.534Z,5.62
2023-04-18T05:21:55.581Z,5.62
2023-04-18T05:22:55.521Z,5.62
2023-04-18T05:23:55.500Z,5.62
2023-04-18T05:24:55.549Z,5.61
2023-04-18T05:25:55.514Z,5.60
2023-04-18T05:26:55.477Z,5.58
2023-04-18T05:27:55.444Z,5.57
2023-04-18T05:28:55.477Z,5.57
2023-04-18T05:29:55.454Z,5.56
2023-04-18T05:30:55.534Z,5.56
2023-04-18T05:31:55.431Z,5.57
2023-04-18T05:32:55.474Z,5.59
2023-04-18T05:33:55.413Z,5.61
2023-04-18T05:34:55.385Z,5.63
2023-04-18T05:35:55.392Z,5.64
2023-04-18T05:36:55.349Z,5.66
2023-04-18T05:37:55.344Z,5.68
2023-04-18T05:38:55.329Z,5.70
2023-04-18T05:39:56.039Z,5.72
2023-04-18T05:40:55.289Z,5.74
2023-04-18T05:41:55.272Z,5.75
2023-04-18T05:42:55.276Z,5.77
2023-04-18T05:44:16.750Z,5.79
2023-04-18T05:44:55.273Z,5.81
2023-04-18T05:45:57.754Z,5.82
2023-04-18T05:46:55.207Z,5.83
2023-04-18T05:47:55.452Z,5.84
2023-04-18T05:48:55.221Z,5.84
2023-04-18T05:49:55.208Z,5.85
2023-04-18T05:50:55.158Z,5.86
2023-04-18T05:51:55.179Z,5.87
2023-04-18T05:52:55.132Z,5.87
2023-04-18T05:53:55.116Z,5.88
2023-04-18T05:54:55.101Z,5.89
2023-04-18T05:55:55.113Z,5.89
2023-04-18T05:56:55.123Z,5.89
2023-04-18T05:57:55.057Z,5.89
2023-04-18T05:58:55.068Z,5.89
2023-04-18T05:59:55.184Z,5.90
2023-04-18T06:00:55.141Z,5.91
2023-04-18T06:01:55.096Z,5.91
2023-04-18T06:02:55.266Z,5.92
2023-04-18T06:03:55.230Z,5.92
2023-04-18T06:04:55.403Z,5.93
2023-04-18T06:05:55.055Z,5.94
2023-04-18T06:06:54.970Z,5.95
2023-04-18T06:07:54.993Z,5.95
2023-04-18T06:08:54.940Z,5.95
2023-04-18T06:09:54.961Z,5.96
2023-04-18T06:10:54.960Z,5.96
2023-04-18T06:11:54.900Z,5.98
2023-04-18T06:12:54.943Z,5.99
2023-04-18T06:13:54.889Z,6.01
2023-04-18T06:14:54.871Z,6.03
2023-04-18T06:15:54.959Z,6.04
2023-04-18T06:16:54.857Z,6.06
2023-04-18T06:17:54.880Z,6.08
2023-04-18T06:18:55.008Z,6.09
2023-04-18T06:19:55.519Z,6.11
2023-04-18T06:20:54.824Z,6.12
2023-04-18T06:21:54.765Z,6.13
2023-04-18T06:22:54.822Z,6.15
2023-04-18T06:23:55.127Z,6.16
2023-04-18T06:24:54.737Z,6.16
2023-04-18T06:25:54.755Z,6.16
2023-04-18T06:26:54.756Z,6.16
2023-04-18T06:27:54.684Z,6.17
2023-04-18T06:28:54.728Z,6.17
2023-04-18T06:29:54.696Z,6.16
2023-04-18T06:30:54.740Z,6.15
2023-04-18T06:31:54.696Z,6.15
2023-04-18T06:32:54.689Z,6.16
2023-04-18T06:33:54.617Z,6.18
2023-04-18T06:34:54.602Z,6.20
2023-04-18T06:35:54.585Z,6.20
2023-04-18T06:36:54.597Z,6.22
2023-04-18T06:37:54.565Z,6.24
2023-04-18T06:38:54.539Z,6.26
2023-04-18T06:39:56.729Z,6.28
2023-04-18T06:40:54.528Z,6.29
2023-04-18T06:41:54.523Z,6.31
2023-04-18T06:42:54.540Z,6.33
2023-04-18T06:44:03.271Z,6.35
2023-04-18T06:44:54.528Z,6.36
2023-04-18T06:45:54.497Z,6.36
2023-04-18T06:46:54.457Z,6.36
2023-04-18T06:47:54.457Z,6.35
2023-04-18T06:48:54.443Z,6.33
2023-04-18T06:49:54.409Z,6.31
2023-04-18T06:50:54.401Z,6.29
2023-04-18T06:51:54.404Z,6.30
2023-04-18T06:52:54.380Z,6.32
2023-04-18T06:53:54.356Z,6.32
2023-04-18T06:54:54.389Z,6.32
2023-04-18T06:55:54.337Z,6.31
2023-04-18T06:56:54.344Z,6.32
2023-04-18T06:57:54.307Z,6.34
2023-04-18T06:58:54.297Z,6.34
2023-04-18T06:59:54.285Z,6.35
2023-04-18T07:00:54.334Z,6.38
2023-04-18T07:01:54.293Z,6.43
2023-04-18T07:02:54.319Z,6.46
2023-04-18T07:03:54.354Z,6.49
2023-04-18T07:04:54.225Z,6.53
2023-04-18T07:05:54.191Z,6.57
2023-04-18T07:06:54.217Z,6.62
2023-04-18T07:07:54.200Z,6.69
2023-04-18T07:08:54.521Z,6.77
2023-04-18T07:09:54.145Z,6.86
2023-04-18T07:10:54.132Z,6.92
2023-04-18T07:11:54.150Z,6.92
2023-04-18T07:12:54.179Z,6.92
2023-04-18T07:13:54.088Z,6.90
2023-04-18T07:14:54.078Z,6.89
2023-04-18T07:15:54.072Z,6.89
2023-04-18T07:16:54.097Z,6.89
2023-04-18T07:17:54.075Z,6.90
2023-04-18T07:18:54.061Z,6.92
2023-04-18T07:19:54.051Z,6.94
2023-04-18T07:20:54.005Z,6.95
2023-04-18T07:21:54.001Z,6.96
2023-04-18T07:22:53.996Z,6.97
2023-04-18T07:23:53.962Z,6.98
2023-04-18T07:24:54.002Z,6.98
2023-04-18T07:25:53.945Z,6.97
2023-04-18T07:26:55.144Z,6.97
2023-04-18T07:27:53.904Z,6.98
2023-04-18T07:28:53.945Z,6.99
2023-04-18T07:29:53.879Z,7.00
2023-04-18T07:30:53.946Z,7.03
2023-04-18T07:31:53.880Z,7.08
2023-04-18T07:32:53.917Z,7.12
2023-04-18T07:33:53.867Z,7.15
2023-04-18T07:34:53.839Z,7.12
2023-04-18T07:35:53.836Z,7.10
2023-04-18T07:36:53.821Z,7.12
2023-04-18T07:37:53.849Z,7.19
2023-04-18T07:38:53.788Z,7.24
2023-04-18T07:39:53.779Z,7.25
2023-04-18T07:40:53.764Z,7.23
2023-04-18T07:41:53.757Z,7.20
2023-04-18T07:42:53.765Z,7.21
2023-04-18T07:43:53.791Z,7.24
2023-04-18T07:44:53.711Z,7.24
2023-04-18T07:45:53.766Z,7.20
2023-04-18T07:46:53.677Z,7.17
2023-04-18T07:47:53.705Z,7.16
2023-04-18T07:48:53.721Z,7.16
2023-04-18T07:49:53.654Z,7.18
2023-04-18T07:50:53.611Z,7.17
2023-04-18T07:51:53.611Z,7.15
2023-04-18T07:52:53.605Z,7.14
2023-04-18T07:53:53.608Z,7.18
2023-04-18T07:54:53.565Z,7.25
2023-04-18T07:55:53.547Z,7.34
2023-04-18T07:56:53.577Z,7.44
2023-04-18T07:57:53.540Z,7.54
2023-04-18T07:58:53.544Z,7.67
2023-04-18T07:59:53.500Z,7.80
2023-04-18T08:00:53.487Z,7.90
2023-04-18T08:01:53.502Z,7.97
2023-04-18T08:02:53.628Z,8.01
2023-04-18T08:03:53.594Z,8.03
2023-04-18T08:04:53.778Z,8.02
2023-04-18T08:05:53.464Z,7.99
2023-04-18T08:06:53.415Z,7.96
2023-04-18T08:07:53.404Z,7.90
2023-04-18T08:08:53.383Z,7.84
2023-04-18T08:09:53.395Z,7.82
2023-04-18T08:10:53.377Z,7.83
2023-04-18T08:11:53.353Z,7.83
2023-04-18T08:12:53.447Z,7.82
2023-04-18T08:13:53.334Z,7.85
2023-04-18T08:14:53.405Z,7.88
2023-04-18T08:15:53.348Z,7.88
2023-04-18T08:16:53.332Z,7.86
2023-04-18T08:17:53.303Z,7.81
2023-04-18T08:18:53.266Z,7.79
2023-04-18T08:19:53.296Z,7.78
2023-04-18T08:20:53.246Z,7.75
2023-04-18T08:21:53.223Z,7.71
2023-04-18T08:23:06.312Z,7.64
2023-04-18T08:23:53.212Z,7.58
2023-04-18T08:25:53.175Z,8.04
2023-04-18T08:26:53.148Z,8.20
2023-04-18T08:27:53.255Z,8.20
2023-04-18T08:28:53.145Z,8.11
2023-04-18T08:29:53.115Z,8.04
2023-04-18T08:30:53.108Z,7.98
2023-04-18T08:31:53.168Z,7.89
2023-04-18T08:32:53.178Z,7.80
2023-04-18T08:33:53.133Z,7.77
2023-04-18T08:34:53.083Z,7.80
2023-04-18T08:35:53.040Z,7.86
2023-04-18T08:36:53.064Z,7.91
2023-04-18T08:37:53.047Z,7.94
2023-04-18T08:38:53.010Z,7.93
2023-04-18T08:39:53.056Z,7.91
2023-04-18T08:40:52.986Z,7.85
2023-04-18T08:41:52.965Z,7.76
2023-04-18T08:42:52.969Z,7.66
2023-04-18T08:43:53.843Z,7.57
2023-04-18T08:44:52.931Z,7.52
2023-04-18T08:45:53.036Z,7.48
2023-04-18T08:46:52.916Z,7.47
2023-04-18T08:47:53.072Z,7.54
2023-04-18T08:48:52.881Z,7.62
2023-04-18T08:49:52.875Z,7.69
2023-04-18T08:50:52.879Z,7.74
2023-04-18T08:51:52.857Z,7.75
2023-04-18T08:52:52.842Z,7.74
2023-04-18T08:53:52.832Z,7.71
2023-04-18T08:54:52.814Z,7.70
2023-04-18T08:55:52.829Z,7.69
2023-04-18T08:56:52.772Z,7.67
2023-04-18T08:57:52.788Z,7.64
2023-04-18T08:58:52.765Z,7.61
2023-04-18T08:59:52.735Z,7.63
2023-04-18T09:00:52.795Z,7.64
2023-04-18T09:01:52.884Z,7.61
2023-04-18T09:02:52.785Z,7.58
2023-04-18T09:03:52.816Z,7.59
2023-04-18T09:04:52.774Z,7.60
2023-04-18T09:05:52.672Z,7.61
2023-04-18T09:06:52.740Z,7.60
2023-04-18T09:07:52.665Z,7.59
2023-04-18T09:08:52.642Z,7.60
2023-04-18T09:09:52.672Z,7.63
2023-04-18T09:10:52.687Z,7.66
2023-04-18T09:11:52.575Z,7.72
2023-04-18T09:12:52.625Z,7.82
2023-04-18T09:13:52.619Z,7.90
2023-04-18T09:14:52.539Z,7.94
2023-04-18T09:15:52.562Z,7.95
2023-04-18T09:16:52.628Z,7.94
2023-04-18T09:17:52.654Z,7.95
2023-04-18T09:18:52.521Z,8.00
2023-04-18T09:19:52.505Z,8.01
2023-04-18T09:20:52.502Z,7.99
2023-04-18T09:21:52.473Z,8.00
2023-04-18T09:22:52.460Z,8.08
2023-04-18T09:23:52.455Z,8.19
2023-04-18T09:24:52.494Z,8.30
2023-04-18T09:25:52.417Z,8.36
2023-04-18T09:26:52.417Z,8.35
2023-04-18T09:27:52.387Z,8.30
2023-04-18T09:28:53.834Z,8.27
2023-04-18T09:29:52.358Z,8.26
2023-04-18T09:30:52.430Z,8.31
2023-04-18T09:31:52.327Z,8.38
2023-04-18T09:32:52.410Z,8.43
2023-04-18T09:33:52.307Z,8.47
2023-04-18T09:34:52.272Z,8.52
2023-04-18T09:35:52.288Z,8.56
2023-04-18T09:36:52.287Z,8.58
2023-04-18T09:37:52.284Z,8.63
2023-04-18T09:38:55.374Z,8.72
2023-04-18T09:39:52.244Z,8.80
2023-04-18T09:40:52.234Z,8.88
2023-04-18T09:41:52.224Z,8.97
2023-04-18T09:42:52.208Z,9.18
2023-04-18T09:43:52.210Z,9.63
2023-04-18T09:44:52.155Z,10.02
2023-04-18T09:45:52.175Z,10.26
2023-04-18T09:46:52.141Z,10.55
2023-04-18T09:47:52.168Z,10.76
2023-04-18T09:48:52.122Z,10.76
2023-04-18T09:49:52.132Z,10.66
2023-04-18T09:50:52.105Z,10.53
2023-04-18T09:51:52.135Z,10.45
2023-04-18T09:52:52.122Z,10.43
2023-04-18T09:53:52.056Z,10.41
2023-04-18T09:54:52.036Z,10.38
2023-04-18T09:55:52.026Z,10.41
2023-04-18T09:56:51.985Z,10.42
2023-04-18T09:57:52.013Z,10.41
2023-04-18T09:58:52.013Z,10.44
2023-04-18T09:59:51.960Z,10.46
2023-04-18T10:00:51.986Z,10.46
2023-04-18T10:01:51.974Z,10.53
2023-04-18T10:02:52.004Z,10.57
2023-04-18T10:03:52.032Z,10.57
2023-04-18T10:04:52.060Z,10.53
2023-04-18T10:05:51.933Z,10.49
2023-04-18T10:06:51.931Z,10.58
2023-04-18T10:07:51.855Z,10.68
2023-04-18T10:08:51.882Z,10.65
2023-04-18T10:09:51.830Z,10.58
2023-04-18T10:10:51.871Z,10.56
2023-04-18T10:11:51.801Z,10.54
2023-04-18T10:12:51.861Z,10.51
2023-04-18T10:13:51.810Z,10.48
2023-04-18T10:14:51.862Z,10.46
2023-04-18T10:15:51.833Z,10.46
2023-04-18T10:16:51.761Z,10.49
2023-04-18T10:18:03.459Z,10.57
2023-04-18T10:18:51.802Z,10.64
2023-04-18T10:19:51.748Z,10.66
2023-04-18T10:20:51.690Z,10.67
2023-04-18T10:21:51.691Z,10.67
2023-04-18T10:22:51.721Z,10.65
2023-04-18T10:23:51.665Z,10.65
2023-04-18T10:24:51.712Z,10.66
2023-04-18T10:25:51.706Z,10.71
2023-04-18T10:26:51.645Z,10.78
2023-04-18T10:27:51.609Z,10.85
2023-04-18T10:28:51.608Z,10.92
2023-04-18T10:29:51.651Z,11.00
2023-04-18T10:30:51.604Z,11.07
2023-04-18T10:31:51.709Z,11.44
2023-04-18T10:32:51.613Z,11.95
2023-04-18T10:34:03.313Z,12.31
2023-04-18T10:34:51.594Z,12.48
2023-04-18T10:35:51.561Z,12.53
2023-04-18T10:36:51.506Z,12.54
2023-04-18T10:37:52.439Z,12.59
2023-04-18T10:38:51.483Z,12.61
2023-04-18T10:39:51.513Z,12.62
2023-04-18T10:40:51.446Z,12.58
2023-04-18T10:41:51.741Z,12.61
2023-04-18T10:42:51.431Z,12.64
2023-04-18T10:43:51.487Z,12.57
2023-04-18T10:44:51.408Z,12.55
2023-04-18T10:45:51.409Z,12.68
2023-04-18T10:46:51.494Z,12.88
2023-04-18T10:47:51.481Z,13.06
2023-04-18T10:48:51.368Z,13.15
2023-04-18T10:49:51.394Z,13.12
2023-04-18T10:50:51.352Z,13.08
2023-04-18T10:51:51.320Z,12.91
2023-04-18T10:52:51.315Z,12.63
2023-04-18T10:53:51.316Z,12.36
2023-04-18T10:54:51.293Z,12.14
2023-04-18T10:55:51.311Z,12.01
2023-04-18T10:56:51.280Z,11.91
2023-04-18T10:57:51.257Z,11.89
2023-04-18T10:58:51.535Z,11.97
2023-04-18T10:59:51.240Z,12.07
2023-04-18T11:00:51.267Z,12.10
2023-04-18T11:01:51.207Z,12.00
2023-04-18T11:02:51.394Z,11.82
2023-04-18T11:03:51.237Z,11.64
2023-04-18T11:04:51.158Z,11.51
2023-04-18T11:05:51.172Z,11.48
2023-04-18T11:06:51.152Z,11.44
2023-04-18T11:07:51.169Z,11.46
2023-04-18T11:08:51.133Z,11.57
2023-04-18T11:09:51.103Z,11.82
2023-04-18T11:10:51.076Z,12.14
2023-04-18T11:11:51.101Z,12.31
2023-04-18T11:12:51.099Z,12.34
2023-04-18T11:13:51.065Z,12.36
2023-04-18T11:14:51.048Z,12.41
2023-04-18T11:15:51.015Z,12.41
2023-04-18T11:16:51.122Z,12.41
2023-04-18T11:17:51.190Z,12.40
2023-04-18T11:18:51.101Z,12.40
2023-04-18T11:19:50.994Z,12.44
2023-04-18T11:20:51.007Z,12.68
2023-04-18T11:21:50.991Z,12.92
2023-04-18T11:22:50.949Z,12.95
2023-04-18T11:23:50.944Z,12.80
2023-04-18T11:24:50.960Z,12.57
2023-04-18T11:25:50.956Z,12.41
2023-04-18T11:26:50.904Z,12.33
2023-04-18T11:27:50.869Z,12.36
2023-04-18T11:28:50.902Z,12.44
2023-04-18T11:29:50.901Z,12.50
2023-04-18T11:30:50.900Z,12.56
2023-04-18T11:31:50.863Z,12.64
2023-04-18T11:32:50.822Z,12.73
2023-04-18T11:33:50.806Z,12.77
2023-04-18T11:34:50.797Z,12.76
2023-04-18T11:35:50.778Z,12.63
2023-04-18T11:36:50.754Z,12.44
2023-04-18T11:37:50.761Z,12.34
2023-04-18T11:38:50.727Z,12.32
2023-04-18T11:39:50.789Z,12.38
2023-04-18T11:40:50.983Z,12.43
2023-04-18T11:41:50.722Z,12.39
2023-04-18T11:42:50.712Z,12.27
2023-04-18T11:43:50.680Z,12.16
2023-04-18T11:44:50.672Z,12.06
2023-04-18T11:45:50.782Z,12.02
2023-04-18T11:46:50.653Z,12.01
2023-04-18T11:47:50.693Z,12.01
2023-04-18T11:48:50.677Z,12.04
2023-04-18T11:49:50.659Z,12.12
2023-04-18T11:50:50.675Z,12.20
2023-04-18T11:51:50.564Z,12.35
2023-04-18T11:52:50.578Z,12.91
2023-04-18T11:53:50.608Z,13.67
2023-04-18T11:54:50.541Z,13.99
2023-04-18T11:55:50.515Z,13.84
2023-04-18T11:56:50.523Z,13.58
2023-04-18T11:57:50.496Z,13.41
2023-04-18T11:58:50.519Z,13.34
2023-04-18T11:59:50.504Z,13.34
2023-04-18T12:00:50.464Z,13.29
2023-04-18T12:01:50.445Z,13.30
2023-04-18T12:02:50.611Z,13.35
2023-04-18T12:03:50.818Z,13.26
2023-04-18T12:04:50.737Z,13.00
2023-04-18T12:05:50.616Z,12.84
2023-04-18T12:06:51.983Z,13.21
2023-04-18T12:07:50.370Z,13.75
2023-04-18T12:08:51.232Z,13.99
2023-04-18T12:09:50.368Z,14.00
2023-04-18T12:10:50.361Z,13.88
2023-04-18T12:11:50.318Z,13.73
2023-04-18T12:12:50.344Z,13.57
2023-04-18T12:13:50.328Z,13.58
2023-04-18T12:14:50.298Z,13.65
2023-04-18T12:15:50.302Z,13.55
2023-04-18T12:16:50.314Z,13.33
2023-04-18T12:17:50.297Z,13.18
2023-04-18T12:18:50.238Z,13.11
2023-04-18T12:19:50.239Z,13.06
2023-04-18T12:20:50.574Z,13.04
2023-04-18T12:21:50.230Z,13.08
2023-04-18T12:22:50.224Z,13.18
2023-04-18T12:23:50.181Z,13.23
2023-04-18T12:24:50.181Z,13.17
2023-04-18T12:25:50.145Z,13.16
2023-04-18T12:26:50.140Z,13.25
2023-04-18T12:27:50.137Z,13.36
2023-04-18T12:28:50.174Z,13.44
2023-04-18T12:29:50.148Z,13.55
2023-04-18T12:30:50.078Z,13.63
2023-04-18T12:31:50.131Z,13.63
2023-04-18T12:32:50.174Z,13.56
2023-04-18T12:33:50.069Z,13.46
2023-04-18T12:34:50.076Z,13.41
2023-04-18T12:35:50.018Z,13.38
2023-04-18T12:36:49.996Z,13.32
2023-04-18T12:37:50.003Z,13.29
2023-04-18T12:38:50.003Z,13.27
2023-04-18T12:39:49.992Z,13.31
2023-04-18T12:40:49.968Z,13.36
2023-04-18T12:41:50.159Z,13.46
2023-04-18T12:42:49.940Z,13.61
2023-04-18T12:43:49.963Z,13.78
2023-04-18T12:44:49.943Z,13.89
2023-04-18T12:45:49.930Z,13.85
2023-04-18T12:46:49.912Z,13.78
2023-04-18T12:47:49.942Z,13.76
2023-04-18T12:48:49.850Z,13.81
2023-04-18T12:49:49.838Z,13.87
2023-04-18T12:50:49.858Z,13.82
2023-04-18T12:51:49.833Z,13.71
2023-04-18T12:52:49.830Z,13.65
2023-04-18T12:53:49.817Z,13.67
2023-04-18T12:54:49.808Z,13.75
2023-04-18T12:55:49.805Z,13.82
2023-04-18T12:56:49.768Z,13.82
2023-04-18T12:57:49.738Z,13.74
2023-04-18T12:58:49.730Z,13.59
2023-04-18T12:59:49.717Z,13.48
2023-04-18T13:00:49.750Z,13.53
2023-04-18T13:01:49.716Z,13.62
2023-04-18T13:02:49.888Z,13.62
2023-04-18T13:03:56.765Z,13.57
2023-04-18T13:04:49.692Z,13.50
2023-04-18T13:05:49.807Z,13.41
2023-04-18T13:06:49.653Z,13.36
2023-04-18T13:07:49.665Z,13.35
2023-04-18T13:08:49.615Z,13.37
2023-04-18T13:09:49.623Z,13.41
2023-04-18T13:10:49.599Z,13.42
2023-04-18T13:11:49.707Z,13.37
2023-04-18T13:12:49.589Z,13.35